createdAt,value
2023-03-06T00:02:01.686Z,14.95
2023-03-06T00:04:13.272Z,12.90
2023-03-06T00:06:17.991Z,16.42
2023-03-06T00:08:20.034Z,14.68
2023-03-06T00:10:25.915Z,14.00
2023-03-06T00:12:27.846Z,13.02
2023-03-06T00:14:36.892Z,15.60
2023-03-06T00:16:39.059Z,13.15
2023-03-06T00:18:44.238Z,13.80
2023-03-06T00:20:48.228Z,16.38
2023-03-06T00:22:51.646Z,15.02
2023-03-06T00:24:54.255Z,15.15
2023-03-06T00:26:56.163Z,14.27
2023-03-06T00:28:58.144Z,14.02
2023-03-06T00:31:00.148Z,13.23
2023-03-06T00:33:02.177Z,16.13
2023-03-06T00:35:04.507Z,14.57
2023-03-06T00:37:08.421Z,13.95
2023-03-06T00:39:11.439Z,9.68
2023-03-06T00:41:13.956Z,12.27
2023-03-06T00:43:19.014Z,16.50
2023-03-06T00:45:20.964Z,13.93
2023-03-06T00:47:22.988Z,12.52
2023-03-06T00:49:27.042Z,14.27
2023-03-06T00:51:31.204Z,14.02
2023-03-06T00:53:35.116Z,14.43
2023-03-06T00:55:37.987Z,17.40
2023-03-06T00:57:41.158Z,14.20
2023-03-06T00:59:43.329Z,13.90
2023-03-06T01:01:46.496Z,14.38
2023-03-06T01:03:48.392Z,16.58
2023-03-06T01:05:50.334Z,13.90
2023-03-06T01:07:56.209Z,12.90
2023-03-06T01:09:58.097Z,13.48
2023-03-06T01:11:59.982Z,14.05
2023-03-06T01:14:02.060Z,13.63
2023-03-06T01:16:12.648Z,13.30
2023-03-06T01:18:17.754Z,12.73
2023-03-06T01:20:19.777Z,11.52
2023-03-06T01:22:21.720Z,10.88
2023-03-06T01:24:26.850Z,18.58
2023-03-06T01:26:31.889Z,14.13
2023-03-06T01:28:37.600Z,12.70
2023-03-06T01:30:40.516Z,12.48
2023-03-06T01:32:42.404Z,12.32
2023-03-06T01:34:44.326Z,11.05
2023-03-06T01:36:47.956Z,11.15
2023-03-06T01:38:50.939Z,15.85
2023-03-06T01:40:52.863Z,12.63
2023-03-06T01:42:54.725Z,11.32
2023-03-06T01:45:28.794Z,13.80
2023-03-06T01:47:31.015Z,15.30
2023-03-06T01:49:39.520Z,13.05
2023-03-06T01:51:50.088Z,11.70
2023-03-06T01:53:54.325Z,13.18
2023-03-06T01:55:56.235Z,14.93
2023-03-06T01:58:05.426Z,11.43
2023-03-06T02:00:13.462Z,10.90
2023-03-06T02:02:15.872Z,14.52
2023-03-06T02:04:18.482Z,13.90
2023-03-06T02:06:22.057Z,13.23
2023-03-06T02:08:24.845Z,11.15
2023-03-06T02:10:27.167Z,12.57
2023-03-06T02:12:29.162Z,13.90
2023-03-06T02:14:34.033Z,11.70
2023-03-06T02:16:36.071Z,12.98
2023-03-06T02:18:42.714Z,12.15
2023-03-06T02:20:50.481Z,12.00
2023-03-06T02:23:10.577Z,14.10
2023-03-06T02:25:51.121Z,13.60
2023-03-06T02:27:53.253Z,13.63
2023-03-06T02:29:56.254Z,12.85
2023-03-06T02:31:59.426Z,15.90
2023-03-06T02:34:14.473Z,11.60
2023-03-06T02:36:22.464Z,12.43
2023-03-06T02:38:48.073Z,13.02
2023-03-06T02:40:52.616Z,12.27
2023-03-06T02:43:00.545Z,11.45
2023-03-06T02:45:08.046Z,11.85
2023-03-06T02:47:10.213Z,11.82
2023-03-06T02:49:13.137Z,13.55
2023-03-06T02:51:15.076Z,10.45
2023-03-06T02:53:19.373Z,11.10
2023-03-06T02:55:24.694Z,14.25
2023-03-06T02:57:27.672Z,13.40
2023-03-06T02:59:32.565Z,10.35
2023-03-06T03:01:34.491Z,14.77
2023-03-06T03:03:37.569Z,11.40
2023-03-06T03:05:40.482Z,14.45
2023-03-06T03:07:43.473Z,14.43
2023-03-06T03:09:51.335Z,10.80
2023-03-06T03:12:01.166Z,10.55
2023-03-06T03:14:03.094Z,11.23
2023-03-06T03:16:09.961Z,13.57
2023-03-06T03:18:12.425Z,13.40
2023-03-06T03:20:19.274Z,13.13
2023-03-06T03:22:21.185Z,13.20
2023-03-06T03:24:24.764Z,14.60
2023-03-06T03:26:26.685Z,12.68
2023-03-06T03:28:30.647Z,11.82
2023-03-06T03:30:33.696Z,13.80
2023-03-06T03:32:35.778Z,16.15
2023-03-06T03:34:38.746Z,11.57
2023-03-06T03:36:40.761Z,12.15
2023-03-06T03:38:46.639Z,11.32
2023-03-06T03:40:50.558Z,12.82
2023-03-06T03:42:54.454Z,11.18
2023-03-06T03:44:57.302Z,13.93
2023-03-06T03:46:59.193Z,14.80
2023-03-06T03:49:02.185Z,10.82
2023-03-06T03:51:13.398Z,15.27
2023-03-06T03:53:17.347Z,12.88
2023-03-06T03:55:21.316Z,14.25
2023-03-06T03:57:24.292Z,11.93
2023-03-06T03:59:29.379Z,14.07
2023-03-06T04:01:39.539Z,11.27
2023-03-06T04:03:42.823Z,12.20
2023-03-06T04:05:45.730Z,12.38
2023-03-06T04:07:47.772Z,13.27
2023-03-06T04:09:49.666Z,14.15
2023-03-06T04:11:51.645Z,12.23
2023-03-06T04:13:55.523Z,13.10
2023-03-06T04:15:57.586Z,14.95
2023-03-06T04:18:01.612Z,11.77
2023-03-06T04:20:05.257Z,11.95
2023-03-06T04:22:07.195Z,15.25
2023-03-06T04:24:11.239Z,11.82
2023-03-06T04:26:13.213Z,10.80
2023-03-06T04:28:15.596Z,14.25
2023-03-06T04:30:17.553Z,12.85
2023-03-06T04:32:21.392Z,12.85
2023-03-06T04:34:23.674Z,12.77
2023-03-06T04:36:29.717Z,15.20
2023-03-06T04:38:31.744Z,13.25
2023-03-06T04:40:36.198Z,13.15
2023-03-06T04:42:38.406Z,15.25
2023-03-06T04:44:41.409Z,13.18
2023-03-06T04:46:43.363Z,12.25
2023-03-06T04:48:45.497Z,11.35
2023-03-06T04:50:47.564Z,11.63
2023-03-06T04:52:49.651Z,18.15
2023-03-06T04:54:51.674Z,10.65
2023-03-06T04:56:57.732Z,15.48
2023-03-06T04:58:59.699Z,14.52
2023-03-06T05:01:16.565Z,13.80
2023-03-06T05:03:18.479Z,11.75
2023-03-06T05:05:20.425Z,11.43
2023-03-06T05:07:22.465Z,14.25
2023-03-06T05:09:31.084Z,14.57
2023-03-06T05:11:33.050Z,12.20
2023-03-06T05:13:34.976Z,11.07
2023-03-06T05:15:42.293Z,14.95
2023-03-06T05:17:44.549Z,12.35
2023-03-06T05:19:46.446Z,13.13
2023-03-06T05:21:48.665Z,19.20
2023-03-06T05:23:50.704Z,17.85
2023-03-06T05:25:53.723Z,21.67
2023-03-06T05:27:55.730Z,19.50
2023-03-06T05:29:58.751Z,23.58
2023-03-06T05:32:05.199Z,20.23
2023-03-06T05:34:08.206Z,21.88
2023-03-06T05:36:10.563Z,26.30
2023-03-06T05:38:12.561Z,17.25
2023-03-06T05:40:17.443Z,19.63
2023-03-06T05:42:20.778Z,16.75
2023-03-06T05:44:24.173Z,16.55
2023-03-06T05:46:26.347Z,16.65
2023-03-06T05:48:35.381Z,20.42
2023-03-06T05:50:45.214Z,18.88
2023-03-06T05:52:47.123Z,23.77
2023-03-06T05:54:57.173Z,26.10
2023-03-06T05:57:05.912Z,23.55
2023-03-06T05:59:07.882Z,19.48
2023-03-06T06:01:18.525Z,15.77
2023-03-06T06:03:22.745Z,16.63
2023-03-06T06:05:48.198Z,27.30
2023-03-06T06:07:56.073Z,14.32
2023-03-06T06:09:58.097Z,10.52
2023-03-06T06:12:03.958Z,14.70
2023-03-06T06:14:07.016Z,14.65
2023-03-06T06:16:19.657Z,12.55
2023-03-06T06:18:22.716Z,12.38
2023-03-06T06:20:25.783Z,14.60
2023-03-06T06:22:27.766Z,18.13
2023-03-06T06:24:33.691Z,12.95
2023-03-06T06:26:37.679Z,13.27
2023-03-06T06:28:39.805Z,13.48
2023-03-06T06:30:47.516Z,11.15
2023-03-06T06:32:49.537Z,10.48
2023-03-06T06:34:52.542Z,12.60
2023-03-06T06:36:55.757Z,14.68
2023-03-06T06:39:00.662Z,14.40
2023-03-06T06:41:33.481Z,14.10
2023-03-06T06:43:26.444Z,15.27
2023-03-06T06:45:28.684Z,12.68
2023-03-06T06:47:30.687Z,17.15
2023-03-06T06:49:33.179Z,12.73
2023-03-06T06:51:39.796Z,12.05
2023-03-06T06:53:42.857Z,15.48
2023-03-06T06:55:44.853Z,17.25
2023-03-06T06:57:46.998Z,15.18
2023-03-06T06:59:50.650Z,16.00
2023-03-06T07:01:54.720Z,15.63
2023-03-06T07:03:56.991Z,14.38
2023-03-06T07:05:58.974Z,13.02
2023-03-06T07:08:01.080Z,21.52
2023-03-06T07:10:11.027Z,11.90
2023-03-06T07:12:18.903Z,1999.90
2023-03-06T07:13:24.373Z,1999.90
2023-03-06T07:13:38.678Z,1999.90
2023-03-06T07:13:52.714Z,1999.90
2023-03-06T07:14:06.690Z,1033.97
2023-03-06T07:14:20.588Z,71.45
2023-03-06T07:14:34.675Z,13.65
2023-03-06T07:14:48.713Z,11.80
2023-03-06T07:15:03.173Z,11.20
2023-03-06T07:17:40.625Z,15.32
2023-03-06T07:19:42.813Z,11.38
2023-03-06T07:21:45.810Z,11.38
2023-03-06T07:23:47.945Z,10.30
2023-03-06T07:25:50.289Z,10.77
2023-03-06T07:27:55.863Z,13.38
2023-03-06T07:29:57.993Z,12.43
2023-03-06T07:32:00.237Z,12.05
2023-03-06T07:34:04.808Z,11.43
2023-03-06T07:36:12.726Z,11.43
2023-03-06T07:38:14.903Z,9.27
2023-03-06T07:40:17.476Z,9.50
2023-03-06T07:42:19.572Z,11.40
2023-03-06T07:44:21.689Z,9.63
2023-03-06T07:46:25.788Z,8.55
2023-03-06T07:48:31.806Z,1999.90
2023-03-06T07:50:35.280Z,1999.90
2023-03-06T07:52:37.239Z,1999.90
2023-03-06T07:54:39.179Z,1999.90
2023-03-06T07:55:12.670Z,376.18
2023-03-06T07:55:24.616Z,81.80
2023-03-06T07:55:39.526Z,35.13
2023-03-06T07:55:51.384Z,4.85
2023-03-06T07:56:09.403Z,4.63
2023-03-06T07:56:21.379Z,5.50
2023-03-06T07:56:35.234Z,6.10
2023-03-06T07:56:50.952Z,6.15
2023-03-06T07:57:02.810Z,6.80
2023-03-06T07:57:15.153Z,6.80
2023-03-06T07:57:27.345Z,6.65
2023-03-06T07:57:39.722Z,6.72
2023-03-06T07:57:51.839Z,8.45
2023-03-06T07:58:03.745Z,9.32
2023-03-06T07:58:15.605Z,7.53
2023-03-06T07:58:27.750Z,7.22
2023-03-06T07:58:42.958Z,6.28
2023-03-06T07:58:56.109Z,6.95
2023-03-06T07:59:11.061Z,7.13
2023-03-06T07:59:22.992Z,6.40
2023-03-06T07:59:34.931Z,5.40
2023-03-06T07:59:46.896Z,6.20
2023-03-06T07:59:58.833Z,8.00
2023-03-06T08:00:15.071Z,8.23
2023-03-06T08:00:27.019Z,7.47
2023-03-06T08:00:38.925Z,7.55
2023-03-06T08:00:50.810Z,7.05
2023-03-06T08:01:07.181Z,7.07
2023-03-06T08:01:28.526Z,6.70
2023-03-06T08:01:40.486Z,6.65
2023-03-06T08:01:55.257Z,6.72
2023-03-06T08:02:07.633Z,6.97
2023-03-06T08:02:19.498Z,6.05
2023-03-06T08:02:31.541Z,6.50
2023-03-06T08:02:44.174Z,6.47
2023-03-06T08:02:56.356Z,8.27
2023-03-06T08:03:11.428Z,7.38
2023-03-06T08:03:26.388Z,6.93
2023-03-06T08:03:38.562Z,6.75
2023-03-06T08:03:51.076Z,6.90
2023-03-06T08:04:03.095Z,6.32
2023-03-06T08:04:15.051Z,5.95
2023-03-06T08:04:28.987Z,6.53
2023-03-06T08:04:40.980Z,7.10
2023-03-06T08:04:54.554Z,7.40
2023-03-06T08:05:08.258Z,8.10
2023-03-06T08:05:20.274Z,6.93
2023-03-06T08:05:32.159Z,5.07
2023-03-06T08:05:45.076Z,5.38
2023-03-06T08:06:06.120Z,6.15
2023-03-06T08:06:23.605Z,6.97
2023-03-06T08:06:35.597Z,6.20
2023-03-06T08:06:47.484Z,6.05
2023-03-06T08:07:00.197Z,5.90
2023-03-06T08:07:13.369Z,6.15
2023-03-06T08:07:25.228Z,238.02
2023-03-06T08:07:37.117Z,1958.70
2023-03-06T08:07:48.967Z,1955.53
2023-03-06T08:08:00.869Z,227.43
2023-03-06T08:08:12.816Z,1.90
2023-03-06T08:08:24.706Z,2.30
2023-03-06T08:08:39.534Z,2.38
2023-03-06T08:08:53.269Z,2.63
2023-03-06T08:09:05.109Z,2.60
2023-03-06T08:09:17.004Z,2.63
2023-03-06T08:09:28.859Z,2.70
2023-03-06T08:09:40.673Z,2.38
2023-03-06T08:09:52.599Z,1.95
2023-03-06T08:10:05.304Z,1.80
2023-03-06T08:10:17.590Z,2.03
2023-03-06T08:12:27.975Z,19.75
2023-03-06T08:14:29.891Z,10.55
2023-03-06T08:16:32.141Z,1.25
2023-03-06T08:18:35.705Z,2.13
2023-03-06T08:20:37.665Z,1.45
2023-03-06T08:22:39.699Z,1.67
2023-03-06T08:24:41.757Z,1.83
2023-03-06T08:26:43.862Z,1.65
2023-03-06T08:28:46.720Z,1.27
2023-03-06T08:30:48.593Z,1.98
2023-03-06T08:32:50.666Z,1.05
2023-03-06T08:33:23.183Z,0.87
2023-03-06T08:33:30.028Z,1.15
2023-03-06T08:33:37.058Z,1.25
2023-03-06T08:33:43.989Z,1.37
2023-03-06T08:33:51.067Z,1.90
2023-03-06T08:34:00.060Z,2.10
2023-03-06T08:34:10.351Z,2.20
2023-03-06T08:34:20.235Z,2.36
2023-03-06T08:34:27.283Z,2.07
2023-03-06T08:34:34.252Z,1.90
2023-03-06T08:34:42.796Z,1.72
2023-03-06T08:34:49.662Z,1.73
2023-03-06T08:34:56.541Z,2.00
2023-03-06T08:35:04.726Z,2.12
2023-03-06T08:35:11.718Z,2.23
2023-03-06T08:35:18.864Z,2.20
2023-03-06T08:37:26.462Z,1.88
2023-03-06T08:39:28.378Z,1.98
2023-03-06T08:41:30.929Z,2.63
2023-03-06T08:43:32.931Z,1.95
2023-03-06T08:45:36.226Z,1.85
2023-03-06T08:47:38.213Z,1.65
2023-03-06T08:49:40.557Z,1.85
2023-03-06T08:51:43.251Z,2.53
2023-03-06T08:53:45.531Z,165.15
2023-03-06T10:25:23.866Z,5.22
2023-03-06T10:25:46.138Z,6.10
2023-03-06T10:26:03.652Z,6.28
2023-03-06T10:26:22.913Z,10.38
2023-03-06T10:26:52.706Z,9.25
2023-03-06T10:27:31.820Z,6.15
2023-03-06T10:27:49.501Z,968.22
2023-03-06T10:28:28.069Z,60.70
2023-03-06T10:28:47.176Z,15.43
2023-03-06T10:29:11.035Z,73.80
2023-03-06T10:30:02.267Z,6.32
2023-03-06T10:30:20.369Z,3.78
2023-03-06T10:30:47.180Z,2.45
2023-03-06T10:31:17.086Z,4.97
2023-03-06T10:31:34.744Z,3.28
2023-03-06T10:31:58.556Z,4.00
2023-03-06T10:32:39.495Z,4.05
2023-03-06T10:33:15.934Z,4.97
2023-03-06T10:34:06.720Z,3.95
2023-03-06T10:34:28.858Z,3.25
2023-03-06T10:34:43.697Z,3.80
2023-03-06T10:35:00.679Z,4.90
2023-03-06T10:35:45.080Z,6.03
2023-03-06T10:35:59.259Z,4.15
2023-03-06T10:36:16.379Z,4.45
2023-03-06T10:36:30.392Z,4.88
2023-03-06T10:36:44.297Z,4.57
2023-03-06T10:37:05.471Z,5.13
2023-03-06T10:37:21.768Z,4.53
2023-03-06T10:37:35.740Z,4.22
2023-03-06T10:37:49.820Z,4.53
2023-03-06T10:38:25.691Z,3.77
2023-03-06T10:38:40.691Z,4.47
2023-03-06T10:38:56.861Z,4.72
2023-03-06T10:39:17.989Z,4.32
2023-03-06T10:39:32.114Z,3.70
2023-03-06T10:39:46.971Z,3.90
2023-03-06T10:40:18.568Z,4.72
2023-03-06T10:40:43.591Z,4.75
2023-03-06T10:41:17.194Z,4.28
2023-03-06T10:41:35.978Z,4.18
2023-03-06T10:41:50.376Z,3.80
2023-03-06T10:42:04.264Z,4.47
2023-03-06T10:42:18.216Z,5.32
2023-03-06T10:42:32.210Z,5.63
2023-03-06T10:42:46.121Z,6.13
2023-03-06T10:43:11.202Z,5.60
2023-03-06T10:43:26.049Z,4.20
2023-03-06T10:43:45.186Z,4.40
2023-03-06T10:44:05.262Z,3.70
2023-03-06T10:44:21.257Z,5.15
2023-03-06T10:44:35.127Z,5.00
2023-03-06T10:44:48.981Z,4.20
2023-03-06T10:45:16.739Z,4.60
2023-03-06T10:45:40.530Z,3.83
2023-03-06T10:46:01.753Z,4.20
2023-03-06T10:46:28.188Z,4.82
2023-03-06T10:46:47.697Z,4.38
2023-03-06T10:47:27.716Z,3.20
2023-03-06T10:47:42.450Z,3.60
2023-03-06T10:48:15.414Z,4.35
2023-03-06T10:48:30.912Z,4.85
2023-03-06T10:48:58.539Z,4.70
2023-03-06T10:49:36.060Z,5.32
2023-03-06T10:50:08.416Z,3.97
2023-03-06T10:50:30.788Z,4.95
2023-03-06T10:50:44.661Z,4.80
2023-03-06T10:51:20.184Z,5.10
2023-03-06T10:51:37.031Z,2.97
2023-03-06T10:52:15.436Z,5.82
2023-03-06T10:52:32.409Z,4.68
2023-03-06T10:53:00.512Z,4.93
2023-03-06T10:53:24.092Z,4.20
2023-03-06T10:53:53.450Z,4.80
2023-03-06T10:54:13.154Z,6.57
2023-03-06T10:54:28.389Z,5.13
2023-03-06T10:54:44.466Z,6.30
2023-03-06T10:55:25.009Z,6.03
2023-03-06T10:55:39.480Z,4.68
2023-03-06T10:57:48.010Z,4.07
2023-03-06T11:00:05.700Z,4.50
2023-03-06T11:02:41.336Z,4.80
2023-03-06T11:04:51.394Z,2.92
2023-03-06T11:07:18.991Z,4.20
2023-03-06T11:09:26.206Z,5.93
2023-03-06T11:11:37.235Z,4.30
2023-03-06T11:13:43.329Z,5.72
2023-03-06T11:16:08.169Z,5.18
2023-03-06T11:18:11.153Z,5.47
2023-03-06T11:20:51.862Z,5.50
2023-03-06T11:23:16.502Z,6.10
2023-03-06T11:25:22.297Z,3.22
2023-03-06T11:27:35.047Z,3.58
2023-03-06T11:29:43.370Z,3.47
2023-03-06T11:32:00.219Z,4.97
2023-03-06T11:34:38.119Z,4.05
2023-03-06T11:37:06.541Z,7.63
2023-03-06T11:39:41.721Z,6.40
2023-03-06T11:42:28.328Z,5.60
2023-03-06T11:44:53.035Z,6.50
2023-03-06T11:47:18.637Z,8.95
2023-03-06T11:49:43.549Z,5.85
2023-03-06T11:51:53.334Z,7.07
2023-03-06T11:54:00.474Z,6.57
2023-03-06T11:56:26.237Z,5.50
2023-03-06T11:58:58.902Z,7.53
2023-03-06T12:01:10.842Z,5.70
2023-03-06T12:03:46.268Z,5.90
2023-03-06T12:06:10.508Z,9.95
2023-03-06T12:08:25.629Z,5.55
2023-03-06T12:10:51.747Z,5.60
2023-03-06T12:13:18.050Z,6.80
2023-03-06T12:15:46.892Z,8.18
2023-03-06T12:18:30.964Z,6.53
2023-03-06T12:21:11.335Z,5.80
2023-03-06T12:23:50.456Z,4.82
2023-03-06T12:26:27.354Z,6.22
2023-03-06T12:28:42.161Z,5.07
2023-03-06T12:31:06.900Z,7.30
2023-03-06T12:33:38.341Z,5.78
2023-03-06T12:36:16.607Z,5.75
2023-03-06T12:38:52.369Z,5.93
2023-03-06T12:41:07.448Z,5.18
2023-03-06T12:43:27.560Z,5.22
2023-03-06T12:45:37.286Z,7.07
2023-03-06T12:47:44.903Z,5.97
2023-03-06T12:49:53.497Z,6.38
2023-03-06T12:51:57.210Z,6.65
2023-03-06T12:54:02.396Z,7.18
2023-03-06T12:56:05.164Z,7.68
2023-03-06T12:58:30.838Z,6.18
2023-03-06T13:01:03.610Z,6.03
2023-03-06T13:03:46.593Z,6.90
2023-03-06T13:06:16.252Z,7.40
2023-03-06T13:08:59.010Z,6.88
2023-03-06T13:11:39.722Z,5.93
2023-03-06T13:13:49.148Z,7.50
2023-03-06T13:16:09.845Z,5.22
2023-03-06T13:18:34.667Z,8.50
2023-03-06T13:20:44.407Z,5.97
2023-03-06T13:22:47.550Z,5.78
2023-03-06T13:25:22.187Z,4.97
2023-03-06T13:27:46.301Z,5.32
2023-03-06T13:30:05.314Z,6.25
2023-03-06T13:32:28.124Z,7.03
2023-03-06T13:34:49.459Z,8.32
2023-03-06T13:36:53.669Z,6.65
2023-03-06T13:38:57.880Z,9.52
2023-03-06T13:41:25.907Z,12.48
2023-03-06T13:43:40.663Z,9.25
2023-03-06T13:46:35.172Z,8.93
2023-03-06T13:48:45.163Z,11.73
2023-03-06T13:50:57.903Z,10.15
2023-03-06T13:53:27.418Z,7.82
2023-03-06T13:55:48.675Z,9.05
2023-03-06T13:58:22.765Z,6.90
2023-03-06T14:01:04.436Z,7.70
2023-03-06T14:03:43.373Z,8.82
2023-03-06T14:05:52.297Z,8.40
2023-03-06T14:08:20.008Z,9.10
2023-03-06T14:10:26.966Z,16.25
2023-03-06T14:12:42.616Z,16.83
2023-03-06T14:15:06.028Z,13.73
2023-03-06T14:17:18.989Z,13.18
2023-03-06T14:19:21.231Z,12.20
2023-03-06T14:21:56.058Z,10.88
2023-03-06T14:24:06.067Z,9.80
2023-03-06T14:26:27.065Z,13.02
2023-03-06T14:29:04.564Z,10.27
2023-03-06T14:31:07.505Z,11.93
2023-03-06T14:33:11.697Z,10.48
2023-03-06T14:35:32.411Z,17.60
2023-03-06T14:37:37.727Z,12.45
2023-03-06T14:39:46.941Z,13.00
2023-03-06T14:41:49.488Z,8.88
2023-03-06T14:43:52.844Z,14.77
2023-03-06T14:46:03.397Z,8.30
2023-03-06T14:48:15.668Z,6.88
2023-03-06T14:50:34.406Z,7.40
2023-03-06T14:52:43.574Z,7.00
2023-03-06T14:54:59.019Z,5.93
2023-03-06T14:57:06.363Z,7.88
2023-03-06T14:59:16.822Z,11.07
2023-03-06T15:01:40.771Z,6.90
2023-03-06T15:03:55.178Z,6.80
2023-03-06T15:06:01.423Z,6.63
2023-03-06T15:08:17.957Z,7.05
2023-03-06T15:10:26.273Z,6.43
2023-03-06T15:12:38.918Z,6.25
2023-03-06T15:14:48.082Z,7.78
2023-03-06T15:16:50.125Z,7.32
2023-03-06T15:19:04.548Z,6.78
2023-03-06T15:21:20.856Z,7.75
2023-03-06T15:23:45.779Z,5.88
2023-03-06T15:26:03.952Z,7.18
2023-03-06T15:28:30.890Z,5.97
2023-03-06T15:30:42.248Z,7.22
2023-03-06T15:32:52.225Z,5.45
2023-03-06T15:35:30.187Z,8.73
2023-03-06T15:37:34.665Z,5.55
2023-03-06T15:39:46.910Z,5.53
2023-03-06T15:42:18.313Z,5.97
2023-03-06T15:44:27.072Z,6.90
2023-03-06T15:46:41.854Z,9.18
2023-03-06T15:49:03.246Z,6.03
2023-03-06T15:51:07.057Z,6.20
2023-03-06T15:53:09.243Z,7.35
2023-03-06T15:55:24.241Z,6.00
2023-03-06T15:57:53.247Z,6.68
2023-03-06T16:00:00.391Z,7.43
2023-03-06T16:02:15.764Z,7.32
2023-03-06T16:04:20.184Z,8.15
2023-03-06T16:06:32.092Z,6.70
2023-03-06T16:08:34.360Z,5.80
2023-03-06T16:10:40.901Z,7.18
2023-03-06T16:12:51.900Z,5.75
2023-03-06T16:14:57.377Z,5.78
2023-03-06T16:17:04.687Z,6.03
2023-03-06T16:19:25.244Z,7.80
2023-03-06T16:21:29.183Z,6.82
2023-03-06T16:23:39.662Z,8.65
2023-03-06T16:25:49.371Z,7.22
2023-03-06T16:28:16.152Z,7.25
2023-03-06T16:30:20.183Z,7.85
2023-03-06T16:32:28.796Z,7.22
2023-03-06T16:34:34.667Z,6.85
2023-03-06T16:36:41.685Z,6.72
2023-03-06T16:38:45.037Z,6.65
2023-03-06T16:40:50.116Z,7.03
2023-03-06T16:42:57.894Z,6.82
2023-03-06T16:45:03.530Z,5.82
2023-03-06T16:47:07.113Z,5.43
2023-03-06T16:49:21.081Z,4.65
2023-03-06T16:51:24.149Z,10.20
2023-03-06T16:53:26.402Z,6.35
2023-03-06T16:55:29.492Z,7.82
2023-03-06T16:57:35.967Z,7.40
2023-03-06T16:59:39.522Z,6.57
2023-03-06T17:01:51.798Z,6.25
2023-03-06T17:03:57.401Z,7.80
2023-03-06T17:05:59.806Z,6.50
2023-03-06T17:08:05.087Z,6.85
2023-03-06T17:10:10.900Z,6.47
2023-03-06T17:12:13.074Z,5.57
2023-03-06T17:14:33.730Z,8.23
2023-03-06T17:16:40.549Z,5.53
2023-03-06T17:18:45.459Z,5.85
2023-03-06T17:20:52.595Z,5.35
2023-03-06T17:22:55.946Z,5.95
2023-03-06T17:24:58.282Z,5.57
2023-03-06T17:27:01.629Z,5.30
2023-03-06T17:29:07.024Z,5.90
2023-03-06T17:31:18.007Z,7.00
2023-03-06T17:33:20.743Z,8.48
2023-03-06T17:35:27.346Z,5.03
2023-03-06T17:37:33.185Z,5.68
2023-03-06T17:39:39.231Z,5.57
2023-03-06T17:41:42.160Z,9.63
2023-03-06T17:43:48.421Z,5.57
2023-03-06T17:45:50.785Z,5.22
2023-03-06T17:47:56.298Z,5.80
2023-03-06T17:50:00.810Z,8.93
2023-03-06T17:52:09.306Z,5.88
2023-03-06T17:54:19.109Z,6.65
2023-03-06T17:56:22.188Z,4.88
2023-03-06T17:58:28.156Z,8.30
2023-03-06T18:00:31.147Z,6.07
2023-03-06T18:02:40.867Z,6.80
2023-03-06T18:04:51.727Z,9.40
2023-03-06T18:07:00.996Z,9.00
2023-03-06T18:09:07.239Z,6.30
2023-03-06T18:11:32.071Z,7.28
2023-03-06T18:13:44.323Z,5.68
2023-03-06T18:15:48.669Z,5.93
2023-03-06T18:18:09.355Z,4.75
2023-03-06T18:20:20.495Z,4.40
2023-03-06T18:22:35.302Z,5.18
2023-03-06T18:24:50.392Z,4.90
2023-03-06T18:26:53.559Z,6.22
2023-03-06T18:29:06.561Z,7.95
2023-03-06T18:31:40.974Z,5.93
2023-03-06T18:33:45.292Z,5.20
2023-03-06T18:35:48.297Z,6.20
2023-03-06T18:37:52.864Z,5.60
2023-03-06T18:39:55.836Z,5.40
2023-03-06T18:41:58.866Z,5.28
2023-03-06T18:44:02.669Z,5.03
2023-03-06T18:46:06.482Z,6.97
2023-03-06T18:48:09.756Z,6.88
2023-03-06T18:50:18.141Z,6.93
2023-03-06T18:52:24.336Z,7.95
2023-03-06T18:54:30.415Z,5.22
2023-03-06T18:56:34.664Z,4.68
2023-03-06T18:58:37.648Z,4.60
2023-03-06T19:00:47.268Z,5.03
2023-03-06T19:02:50.591Z,4.93
2023-03-06T19:04:56.893Z,4.07
2023-03-06T19:06:59.972Z,5.63
2023-03-06T19:09:04.855Z,6.82
2023-03-06T19:11:14.481Z,7.28
2023-03-06T19:13:22.998Z,6.03
2023-03-06T19:15:26.115Z,6.05
2023-03-06T19:17:29.290Z,5.80
2023-03-06T19:19:36.140Z,6.15
2023-03-06T19:21:39.358Z,8.73
2023-03-06T19:23:44.051Z,5.05
2023-03-06T19:25:58.781Z,4.07
2023-03-06T19:28:04.699Z,4.97
2023-03-06T19:30:08.450Z,6.20
2023-03-06T19:32:13.864Z,5.60
2023-03-06T19:34:18.260Z,4.97
2023-03-06T19:36:24.470Z,5.07
2023-03-06T19:38:28.771Z,4.15
2023-03-06T19:40:31.710Z,5.38
2023-03-06T19:42:36.214Z,2.85
2023-03-06T19:44:40.357Z,3.50
2023-03-06T19:46:44.189Z,4.65
2023-03-06T19:48:49.199Z,3.60
2023-03-06T19:50:51.801Z,2.95
2023-03-06T19:52:54.175Z,3.83
2023-03-06T19:54:58.236Z,3.25
2023-03-06T19:57:01.387Z,3.83
2023-03-06T19:59:10.748Z,2.70
2023-03-06T20:01:21.276Z,4.72
2023-03-06T20:03:24.277Z,5.25
2023-03-06T20:05:28.606Z,3.03
2023-03-06T20:07:36.108Z,3.50
2023-03-06T20:09:42.920Z,3.70
2023-03-06T20:11:47.064Z,2.10
2023-03-06T20:14:00.717Z,3.35
2023-03-06T20:16:04.822Z,4.07
2023-03-06T20:18:07.406Z,3.72
2023-03-06T20:20:11.419Z,5.03
2023-03-06T20:22:14.853Z,3.90
2023-03-06T20:24:19.524Z,5.55
2023-03-06T20:26:22.902Z,5.05
2023-03-06T20:28:26.939Z,4.50
2023-03-06T20:30:37.558Z,5.70
2023-03-06T20:32:40.648Z,4.90
2023-03-06T20:34:44.816Z,4.35
2023-03-06T20:36:47.891Z,4.63
2023-03-06T20:38:56.065Z,4.35
2023-03-06T20:43:16.360Z,4.13
2023-03-06T20:45:18.765Z,4.15
2023-03-06T20:47:25.081Z,3.28
2023-03-06T20:49:29.137Z,3.55
2023-03-06T20:51:36.802Z,4.25
2023-03-06T20:53:39.520Z,5.80
2023-03-06T20:55:43.573Z,4.55
2023-03-06T20:57:54.540Z,3.78
2023-03-06T20:59:56.845Z,4.72
2023-03-06T21:01:59.554Z,3.50
2023-03-06T21:04:06.653Z,4.88
2023-03-06T21:06:09.593Z,3.33
2023-03-06T21:08:13.182Z,4.60
2023-03-06T21:10:15.732Z,6.70
2023-03-06T21:12:18.535Z,3.72
2023-03-06T21:14:21.658Z,6.22
2023-03-06T21:16:25.900Z,5.82
2023-03-06T21:18:28.395Z,5.65
2023-03-06T21:20:30.923Z,3.38
2023-03-06T21:22:33.380Z,5.50
2023-03-06T21:24:36.223Z,4.60
2023-03-06T21:26:38.971Z,4.03
2023-03-06T21:28:43.527Z,4.38
2023-03-06T21:30:46.659Z,4.80
2023-03-06T21:32:50.667Z,3.95
2023-03-06T21:34:53.487Z,4.65
2023-03-06T21:36:55.544Z,4.68
2023-03-06T21:38:58.723Z,4.22
2023-03-06T21:41:14.561Z,3.95
2023-03-06T21:43:17.712Z,4.57
2023-03-06T21:45:22.210Z,5.85
2023-03-06T21:47:24.319Z,4.88
2023-03-06T21:49:27.529Z,4.35
2023-03-06T21:51:29.442Z,5.68
2023-03-06T21:53:31.480Z,3.50
2023-03-06T21:55:33.447Z,5.18
2023-03-06T21:57:35.577Z,5.03
2023-03-06T21:59:37.944Z,4.88
2023-03-06T22:01:40.057Z,4.70
2023-03-06T22:03:41.994Z,6.05
2023-03-06T22:05:45.018Z,8.43
2023-03-06T22:07:47.075Z,6.40
2023-03-06T22:09:53.586Z,5.68
2023-03-06T22:11:55.574Z,6.90
2023-03-06T22:13:58.302Z,6.30
2023-03-06T22:16:00.727Z,5.82
2023-03-06T22:18:02.693Z,6.03
2023-03-06T22:20:04.989Z,10.18
2023-03-06T22:22:07.598Z,7.38
2023-03-06T22:24:10.721Z,7.32
2023-03-06T22:26:14.633Z,7.57
2023-03-06T22:28:18.669Z,5.93
2023-03-06T22:30:22.704Z,9.55
2023-03-06T22:32:25.836Z,8.52
2023-03-06T22:34:36.954Z,7.10
2023-03-06T22:36:39.006Z,7.93
2023-03-06T22:38:44.692Z,7.78
2023-03-06T22:41:00.157Z,6.75
2023-03-06T22:43:04.870Z,7.65
2023-03-06T22:45:16.343Z,6.88
2023-03-06T22:47:18.301Z,6.82
2023-03-06T22:49:21.292Z,5.75
2023-03-06T22:51:23.288Z,6.40
2023-03-06T22:53:26.211Z,7.28
2023-03-06T22:55:29.202Z,11.68
2023-03-06T22:57:32.227Z,9.73
2023-03-06T22:59:34.179Z,7.65
2023-03-06T23:01:39.386Z,7.60
2023-03-06T23:03:44.985Z,8.00
2023-03-06T23:05:49.064Z,7.72
2023-03-06T23:07:51.884Z,8.75
2023-03-06T23:09:54.950Z,6.65
2023-03-06T23:11:56.912Z,7.13
2023-03-06T23:14:01.284Z,6.82
2023-03-06T23:16:07.070Z,8.68
2023-03-06T23:18:10.170Z,7.53
2023-03-06T23:20:14.839Z,7.32
2023-03-06T23:22:16.974Z,9.68
2023-03-06T23:24:18.957Z,6.47
2023-03-06T23:26:24.831Z,7.03
2023-03-06T23:28:27.499Z,10.50
2023-03-06T23:30:29.597Z,6.15
2023-03-06T23:32:34.441Z,7.85
2023-03-06T23:34:36.492Z,7.80
2023-03-06T23:36:38.541Z,7.47
2023-03-06T23:38:41.282Z,7.93
2023-03-06T23:40:43.306Z,7.82
2023-03-06T23:42:45.231Z,7.38
2023-03-06T23:44:48.336Z,6.93
2023-03-06T23:46:50.368Z,7.10
2023-03-06T23:48:52.410Z,7.55
2023-03-06T23:50:54.415Z,7.20
2023-03-06T23:52:56.384Z,6.63
2023-03-06T23:54:58.288Z,7.15
2023-03-06T23:57:00.179Z,6.60
2023-03-06T23:59:02.196Z,7.38
